createdAt,value
2018-09-29T00:00:45.780Z,12.63
2018-09-29T00:03:24.621Z,10.77
2018-09-29T00:06:03.160Z,11.23
2018-09-29T00:08:40.293Z,11.03
2018-09-29T00:11:13.460Z,8.67
2018-09-29T00:13:52.475Z,8.50
2018-09-29T00:16:29.833Z,14.95
2018-09-29T00:19:07.284Z,11.90
2018-09-29T00:21:46.133Z,9.23
2018-09-29T00:24:25.138Z,9.57
2018-09-29T00:27:02.843Z,9.60
2018-09-29T00:29:40.357Z,11.70
2018-09-29T00:32:18.323Z,12.83
2018-09-29T00:34:47.987Z,7.13
2018-09-29T00:37:17.500Z,6.87
2018-09-29T00:39:47.032Z,10.97
2018-09-29T00:42:16.573Z,11.57
2018-09-29T00:44:46.137Z,11.53
2018-09-29T00:47:15.636Z,8.47
2018-09-29T00:49:45.142Z,13.00
2018-09-29T00:52:14.683Z,10.40
2018-09-29T00:54:44.338Z,10.33
2018-09-29T00:57:13.865Z,9.28
2018-09-29T00:59:43.473Z,10.70
2018-09-29T01:02:13.017Z,9.07
2018-09-29T01:04:42.553Z,8.63
2018-09-29T01:07:12.080Z,8.67
2018-09-29T01:09:41.585Z,11.40
2018-09-29T01:12:11.169Z,7.53
2018-09-29T01:14:40.791Z,8.40
2018-09-29T01:17:10.913Z,10.80
2018-09-29T01:19:40.608Z,8.93
2018-09-29T01:22:10.144Z,8.57
2018-09-29T01:24:39.687Z,8.80
2018-09-29T01:27:09.213Z,13.60
2018-09-29T01:29:38.732Z,12.13
2018-09-29T01:32:08.296Z,10.07
2018-09-29T01:34:37.866Z,9.57
2018-09-29T01:37:07.449Z,8.47
2018-09-29T01:39:37.008Z,7.30
2018-09-29T01:44:48.630Z,9.43
2018-09-29T01:47:24.902Z,10.70
2018-09-29T01:49:54.413Z,10.53
2018-09-29T01:52:23.941Z,8.90
2018-09-29T01:54:53.440Z,7.67
2018-09-29T01:57:22.948Z,9.53
2018-09-29T01:59:52.446Z,5.80
2018-09-29T02:02:22.840Z,7.55
2018-09-29T02:04:53.789Z,11.37
2018-09-29T02:07:23.324Z,12.10
2018-09-29T02:09:52.905Z,9.07
2018-09-29T02:12:22.444Z,13.83
2018-09-29T02:14:51.934Z,16.57
2018-09-29T02:17:21.470Z,11.23
2018-09-29T02:19:51.005Z,11.97
2018-09-29T02:22:20.541Z,9.40
2018-09-29T02:24:50.078Z,9.10
2018-09-29T02:27:19.582Z,6.87
2018-09-29T02:29:49.069Z,5.20
2018-09-29T02:32:18.595Z,9.33
2018-09-29T02:34:48.163Z,10.23
2018-09-29T02:37:17.700Z,7.03
2018-09-29T02:39:47.278Z,6.10
2018-09-29T02:42:16.813Z,9.48
2018-09-29T02:44:46.329Z,9.07
2018-09-29T02:47:15.862Z,5.00
2018-09-29T02:49:45.398Z,10.37
2018-09-29T02:52:14.964Z,7.10
2018-09-29T02:54:44.541Z,6.92
2018-09-29T02:57:14.055Z,6.77
2018-09-29T02:59:43.590Z,8.27
2018-09-29T03:02:13.129Z,9.53
2018-09-29T03:04:42.654Z,7.50
2018-09-29T03:07:12.237Z,4.47
2018-09-29T03:09:41.726Z,8.47
2018-09-29T03:12:11.355Z,7.90
2018-09-29T03:14:40.893Z,5.10
2018-09-29T03:17:10.446Z,5.62
2018-09-29T03:19:40.008Z,8.97
2018-09-29T03:22:09.472Z,6.43
2018-09-29T03:24:39.005Z,6.90
2018-09-29T03:27:08.532Z,10.00
2018-09-29T03:29:38.095Z,6.10
2018-09-29T03:32:07.683Z,6.53
2018-09-29T03:34:37.340Z,8.00
2018-09-29T03:37:07.045Z,8.83
2018-09-29T03:39:36.549Z,10.13
2018-09-29T03:42:06.267Z,8.73
2018-09-29T03:44:35.766Z,8.73
2018-09-29T03:47:06.881Z,6.90
2018-09-29T03:49:36.446Z,6.65
2018-09-29T03:52:06.521Z,8.97
2018-09-29T03:54:36.053Z,7.50
2018-09-29T03:57:06.632Z,8.42
2018-09-29T03:59:36.341Z,7.50
2018-09-29T04:02:06.173Z,5.10
2018-09-29T04:04:35.688Z,8.27
2018-09-29T04:07:06.365Z,7.14
2018-09-29T04:09:35.858Z,11.37
2018-09-29T04:12:06.689Z,8.83
2018-09-29T04:14:36.198Z,11.60
2018-09-29T04:17:06.574Z,9.10
2018-09-29T04:19:36.195Z,7.17
2018-09-29T04:22:06.375Z,10.35
2018-09-29T04:24:35.928Z,9.83
2018-09-29T04:27:07.291Z,12.15
2018-09-29T04:29:36.851Z,10.93
2018-09-29T04:32:06.438Z,15.03
2018-09-29T04:34:35.962Z,9.73
2018-09-29T04:37:21.169Z,13.04
2018-09-29T04:39:51.008Z,11.03
2018-09-29T04:42:20.560Z,8.40
2018-09-29T04:44:50.170Z,7.70
2018-09-29T04:47:19.868Z,7.65
2018-09-29T04:49:49.411Z,8.47
2018-09-29T04:52:18.937Z,8.73
2018-09-29T04:54:48.743Z,9.43
2018-09-29T04:57:18.472Z,10.50
2018-09-29T04:59:48.105Z,9.83
2018-09-29T05:02:17.910Z,9.20
2018-09-29T05:04:47.700Z,11.67
2018-09-29T05:07:17.419Z,9.65
2018-09-29T05:12:28.339Z,6.73
2018-09-29T05:14:58.124Z,8.77
2018-09-29T05:17:27.760Z,8.53
2018-09-29T05:19:57.590Z,11.67
2018-09-29T05:22:27.349Z,8.50
2018-09-29T05:24:57.174Z,6.27
2018-09-29T05:27:26.873Z,10.70
2018-09-29T05:29:56.602Z,8.57
2018-09-29T05:32:26.405Z,6.58
2018-09-29T05:34:56.102Z,10.87
2018-09-29T05:37:25.819Z,10.83
2018-09-29T05:39:55.626Z,10.37
2018-09-29T05:42:25.446Z,11.73
2018-09-29T05:44:55.250Z,9.50
2018-09-29T05:47:24.974Z,9.20
2018-09-29T05:49:54.765Z,9.15
2018-09-29T05:52:24.533Z,12.15
2018-09-29T05:54:54.300Z,8.67
2018-09-29T05:57:24.010Z,9.23
2018-09-29T05:59:53.704Z,8.37
2018-09-29T06:02:23.473Z,8.30
2018-09-29T06:04:53.243Z,12.67
2018-09-29T06:10:08.122Z,5.43
2018-09-29T06:12:38.148Z,7.33
2018-09-29T06:15:08.161Z,6.83
2018-09-29T06:17:38.282Z,8.93
2018-09-29T06:20:08.188Z,5.57
2018-09-29T06:25:10.374Z,8.63
2018-09-29T06:27:40.906Z,9.80
2018-09-29T06:30:10.725Z,9.68
2018-09-29T06:32:40.621Z,6.57
2018-09-29T06:35:10.547Z,8.07
2018-09-29T06:37:40.366Z,7.27
2018-09-29T06:40:10.165Z,8.30
2018-09-29T06:42:39.976Z,6.37
2018-09-29T06:45:09.795Z,6.73
2018-09-29T06:47:39.640Z,6.80
2018-09-29T06:50:11.110Z,7.13
2018-09-29T06:52:40.873Z,6.90
2018-09-29T06:55:10.668Z,7.37
2018-09-29T06:57:40.388Z,6.10
2018-09-29T07:00:10.201Z,5.70
2018-09-29T07:02:39.894Z,7.10
2018-09-29T07:05:09.422Z,6.07
2018-09-29T07:07:38.930Z,7.40
2018-09-29T07:10:08.462Z,5.80
2018-09-29T07:12:38.091Z,7.50
2018-09-29T07:15:08.758Z,9.10
2018-09-29T07:17:38.273Z,5.97
2018-09-29T07:20:07.830Z,9.00
2018-09-29T07:25:28.814Z,6.70
2018-09-29T07:27:58.320Z,6.43
2018-09-29T07:30:27.858Z,4.43
2018-09-29T07:32:57.367Z,6.57
2018-09-29T07:35:26.882Z,6.40
2018-09-29T07:37:56.428Z,5.57
2018-09-29T07:40:25.956Z,5.80
2018-09-29T07:42:55.486Z,6.10
2018-09-29T07:45:24.994Z,6.33
2018-09-29T07:47:54.531Z,6.30
2018-09-29T07:50:24.116Z,4.87
2018-09-29T07:52:53.630Z,4.57
2018-09-29T07:55:23.223Z,8.47
2018-09-29T07:57:52.729Z,7.37
2018-09-29T08:00:22.309Z,5.93
2018-09-29T08:02:51.821Z,6.90
2018-09-29T08:07:52.281Z,7.43
2018-09-29T08:10:21.846Z,5.93
2018-09-29T08:12:51.380Z,10.33
2018-09-29T08:15:20.916Z,4.83
2018-09-29T08:17:50.469Z,6.60
2018-09-29T08:20:20.014Z,4.45
2018-09-29T08:22:49.528Z,8.37
2018-09-29T08:25:19.073Z,4.93
2018-09-29T08:27:48.586Z,7.57
2018-09-29T08:30:18.117Z,6.47
2018-09-29T08:32:47.685Z,5.90
2018-09-29T08:35:17.217Z,7.33
2018-09-29T08:37:46.775Z,6.27
2018-09-29T08:40:16.259Z,5.37
2018-09-29T08:42:45.794Z,4.90
2018-09-29T08:45:15.368Z,5.97
2018-09-29T08:47:44.969Z,7.33
2018-09-29T08:51:17.390Z,6.85
2018-09-29T08:53:46.966Z,4.97
2018-09-29T08:56:16.450Z,7.58
2018-09-29T08:58:45.982Z,5.50
2018-09-29T09:01:15.641Z,5.85
2018-09-29T09:03:45.229Z,5.57
2018-09-29T09:06:14.840Z,5.50
2018-09-29T09:08:44.497Z,5.80
2018-09-29T09:11:14.073Z,6.07
2018-09-29T09:13:43.591Z,5.23
2018-09-29T09:16:13.285Z,6.10
2018-09-29T09:18:43.864Z,3.87
2018-09-29T09:21:13.397Z,3.83
2018-09-29T09:23:42.966Z,4.73
2018-09-29T09:26:12.704Z,3.95
2018-09-29T09:28:42.313Z,6.87
2018-09-29T09:31:13.113Z,4.70
2018-09-29T09:33:42.822Z,5.63
2018-09-29T09:36:12.417Z,6.15
2018-09-29T09:38:41.985Z,5.33
2018-09-29T09:41:11.527Z,4.53
2018-09-29T09:43:41.057Z,6.23
2018-09-29T09:46:11.535Z,4.40
2018-09-29T09:48:41.204Z,3.27
2018-09-29T09:51:11.351Z,5.13
2018-09-29T09:53:42.128Z,6.47
2018-09-29T09:56:11.703Z,5.40
2018-09-29T09:58:41.242Z,3.27
2018-09-29T10:01:16.025Z,4.53
2018-09-29T10:03:45.546Z,2.33
2018-09-29T10:06:15.158Z,3.80
2018-09-29T10:08:44.786Z,6.17
2018-09-29T10:11:14.524Z,3.87
2018-09-29T10:13:44.155Z,6.70
2018-09-29T10:16:13.717Z,3.98
2018-09-29T10:18:43.380Z,2.77
2018-09-29T10:21:13.053Z,3.83
2018-09-29T10:23:42.605Z,5.40
2018-09-29T10:26:12.129Z,3.55
2018-09-29T10:28:41.658Z,4.60
2018-09-29T10:31:11.214Z,5.10
2018-09-29T10:33:40.775Z,2.63
2018-09-29T10:38:52.738Z,3.90
2018-09-29T10:41:22.260Z,5.87
2018-09-29T10:43:51.814Z,4.40
2018-09-29T10:46:21.346Z,4.30
2018-09-29T10:48:51.026Z,6.37
2018-09-29T10:51:20.663Z,2.47
2018-09-29T10:53:50.271Z,1.57
2018-09-29T10:56:19.894Z,3.70
2018-09-29T10:58:49.434Z,3.40
2018-09-29T11:01:18.960Z,3.73
2018-09-29T11:03:48.630Z,3.13
2018-09-29T11:06:18.179Z,3.17
2018-09-29T11:08:47.733Z,1.63
2018-09-29T11:11:18.478Z,4.17
2018-09-29T11:13:48.066Z,6.50
2018-09-29T11:16:22.411Z,1.75
2018-09-29T11:18:51.968Z,1.97
2018-09-29T11:21:21.540Z,1.85
2018-09-29T11:23:51.117Z,3.33
2018-09-29T11:26:20.679Z,3.70
2018-09-29T11:28:50.230Z,2.40
2018-09-29T11:31:19.873Z,2.40
2018-09-29T11:36:26.317Z,2.17
2018-09-29T11:38:56.092Z,4.30
2018-09-29T11:41:31.755Z,3.67
2018-09-29T11:44:01.391Z,2.93
2018-09-29T11:46:31.485Z,3.27
2018-09-29T11:49:01.091Z,2.80
2018-09-29T11:51:30.757Z,3.53
2018-09-29T11:54:00.637Z,3.60
2018-09-29T11:56:30.277Z,3.97
2018-09-29T11:59:00.397Z,3.37
2018-09-29T12:01:29.972Z,3.30
2018-09-29T12:03:59.537Z,4.03
2018-09-29T12:06:29.177Z,2.87
2018-09-29T12:08:58.927Z,2.93
2018-09-29T12:11:28.735Z,4.10
2018-09-29T12:13:58.813Z,3.30
2018-09-29T12:16:28.956Z,3.07
2018-09-29T12:18:58.578Z,2.60
2018-09-29T12:21:30.072Z,3.97
2018-09-29T12:23:59.858Z,1.70
2018-09-29T12:26:29.376Z,1.50
2018-09-29T12:28:59.299Z,2.07
2018-09-29T12:31:28.985Z,3.73
2018-09-29T12:33:58.551Z,3.00
2018-09-29T12:36:28.193Z,2.00
2018-09-29T12:38:57.800Z,3.07
2018-09-29T12:41:27.485Z,1.13
2018-09-29T12:43:57.006Z,2.43
2018-09-29T12:46:26.696Z,3.67
2018-09-29T12:48:56.251Z,3.70
2018-09-29T12:51:25.847Z,2.55
2018-09-29T12:53:55.673Z,1.60
2018-09-29T12:56:26.055Z,3.00
2018-09-29T12:58:55.601Z,2.77
2018-09-29T13:01:26.348Z,0.90
2018-09-29T13:03:55.945Z,2.93
2018-09-29T13:06:25.604Z,3.47
2018-09-29T13:08:55.345Z,4.23
2018-09-29T13:11:24.955Z,2.33
2018-09-29T13:13:54.556Z,2.10
2018-09-29T13:16:26.657Z,3.37
2018-09-29T13:18:56.149Z,4.23
2018-09-29T13:21:25.657Z,4.40
2018-09-29T13:23:55.193Z,5.63
2018-09-29T13:26:24.742Z,1.77
2018-09-29T13:28:54.406Z,3.43
2018-09-29T13:31:23.941Z,8.38
2018-09-29T13:33:53.477Z,4.83
2018-09-29T13:36:23.000Z,3.87
2018-09-29T13:38:52.545Z,4.17
2018-09-29T13:41:22.080Z,3.47
2018-09-29T13:43:51.617Z,3.87
2018-09-29T13:46:21.192Z,2.85
2018-09-29T13:48:50.708Z,3.97
2018-09-29T13:51:20.330Z,3.80
2018-09-29T13:53:49.919Z,3.77
2018-09-29T13:56:19.366Z,3.63
2018-09-29T13:58:48.923Z,2.73
2018-09-29T14:01:18.445Z,6.83
2018-09-29T14:03:48.011Z,4.47
2018-09-29T14:06:17.545Z,3.45
2018-09-29T14:08:47.083Z,4.43
2018-09-29T14:11:16.729Z,3.15
2018-09-29T14:13:46.217Z,8.40
2018-09-29T14:16:15.730Z,3.40
2018-09-29T14:18:45.286Z,3.57
2018-09-29T14:21:14.849Z,3.90
2018-09-29T14:23:44.453Z,3.58
2018-09-29T14:26:14.330Z,4.70
2018-09-29T14:28:51.800Z,2.57
2018-09-29T14:31:21.538Z,2.97
2018-09-29T14:33:51.326Z,3.10
2018-09-29T14:36:21.237Z,2.15
2018-09-29T14:38:51.895Z,2.83
2018-09-29T14:41:21.678Z,4.37
2018-09-29T14:43:51.406Z,3.17
2018-09-29T14:46:21.204Z,3.37
2018-09-29T14:51:19.308Z,2.83
2018-09-29T14:53:49.396Z,1.80
2018-09-29T14:56:20.962Z,3.73
2018-09-29T14:58:52.015Z,3.37
2018-09-29T15:01:21.725Z,4.62
2018-09-29T15:03:51.850Z,3.50
2018-09-29T15:06:21.573Z,2.52
2018-09-29T15:11:21.381Z,4.67
2018-09-29T15:13:51.115Z,2.50
2018-09-29T15:16:20.993Z,2.35
2018-09-29T15:18:50.733Z,2.30
2018-09-29T15:21:20.616Z,3.15
2018-09-29T15:23:50.434Z,3.60
2018-09-29T15:26:20.157Z,3.85
2018-09-29T15:28:49.948Z,7.60
2018-09-29T15:31:19.659Z,2.93
2018-09-29T15:33:49.400Z,2.73
2018-09-29T15:36:19.108Z,3.10
2018-09-29T15:38:49.008Z,3.43
2018-09-29T15:41:18.918Z,2.13
2018-09-29T15:43:48.717Z,4.40
2018-09-29T15:46:18.452Z,3.27
2018-09-29T15:48:48.300Z,6.50
2018-09-29T15:51:18.049Z,3.47
2018-09-29T15:53:47.784Z,2.70
2018-09-29T15:56:17.471Z,4.05
2018-09-29T15:58:47.219Z,2.60
2018-09-29T16:01:17.015Z,3.75
2018-09-29T16:03:47.088Z,3.47
2018-09-29T16:06:21.038Z,2.60
2018-09-29T16:08:50.952Z,4.67
2018-09-29T16:11:20.773Z,3.30
2018-09-29T16:13:50.664Z,2.73
2018-09-29T16:16:20.473Z,4.17
2018-09-29T16:18:50.493Z,2.53
2018-09-29T16:21:20.311Z,3.60
2018-09-29T16:23:50.273Z,3.43
2018-09-29T16:26:20.143Z,3.87
2018-09-29T16:28:50.186Z,3.57
2018-09-29T16:31:20.065Z,3.42
2018-09-29T16:33:49.986Z,5.27
2018-09-29T16:36:21.122Z,2.92
2018-09-29T16:38:51.139Z,3.73
2018-09-29T16:41:20.863Z,3.62
2018-09-29T16:43:50.785Z,4.13
2018-09-29T16:46:20.592Z,3.25
2018-09-29T16:48:50.807Z,4.63
2018-09-29T16:51:21.047Z,3.37
2018-09-29T16:53:51.673Z,4.15
2018-09-29T16:56:21.474Z,3.20
2018-09-29T16:58:51.493Z,3.63
2018-09-29T17:01:21.305Z,4.30
2018-09-29T17:03:51.264Z,3.27
2018-09-29T17:06:21.128Z,3.87
2018-09-29T17:08:51.049Z,5.63
2018-09-29T17:11:20.970Z,6.28
2018-09-29T17:13:50.698Z,4.57
2018-09-29T17:16:21.516Z,4.58
2018-09-29T17:18:51.642Z,3.87
2018-09-29T17:21:21.355Z,5.30
2018-09-29T17:23:51.252Z,3.07
2018-09-29T17:26:20.882Z,2.70
2018-09-29T17:28:50.968Z,6.97
2018-09-29T17:31:20.710Z,5.50
2018-09-29T17:33:50.515Z,3.20
2018-09-29T17:39:09.869Z,4.70
2018-09-29T17:41:39.809Z,3.70
2018-09-29T17:44:09.627Z,5.63
2018-09-29T17:46:41.303Z,6.10
2018-09-29T17:49:10.922Z,4.45
2018-09-29T17:51:40.450Z,3.60
2018-09-29T17:54:09.978Z,3.40
2018-09-29T17:56:39.643Z,4.07
2018-09-29T17:59:10.721Z,6.53
2018-09-29T18:01:40.309Z,3.40
2018-09-29T18:04:09.979Z,4.53
2018-09-29T18:06:39.512Z,4.07
2018-09-29T18:09:11.393Z,3.87
2018-09-29T18:11:41.293Z,7.27
2018-09-29T18:14:10.898Z,5.37
2018-09-29T18:16:40.506Z,4.73
2018-09-29T18:19:10.059Z,5.90
2018-09-29T18:21:39.618Z,4.13
2018-09-29T18:24:09.205Z,4.23
2018-09-29T18:26:38.981Z,4.67
2018-09-29T18:29:08.546Z,4.90
2018-09-29T18:31:38.203Z,5.60
2018-09-29T18:34:07.941Z,5.57
2018-09-29T18:36:37.574Z,5.67
2018-09-29T18:39:11.101Z,7.03
2018-09-29T18:41:40.754Z,4.17
2018-09-29T18:44:10.295Z,5.57
2018-09-29T18:46:39.888Z,7.20
2018-09-29T18:49:09.449Z,4.03
2018-09-29T18:51:41.914Z,8.73
2018-09-29T18:54:14.581Z,11.03
2018-09-29T18:57:14.747Z,8.77
2018-09-29T18:59:44.354Z,7.80
2018-09-29T19:02:13.989Z,7.78
2018-09-29T19:04:45.028Z,6.87
2018-09-29T19:07:14.573Z,11.60
2018-09-29T19:09:44.131Z,5.40
2018-09-29T19:12:13.647Z,6.17
2018-09-29T19:14:43.157Z,8.03
2018-09-29T19:17:12.943Z,6.03
2018-09-29T19:20:13.197Z,6.27
2018-09-29T19:22:43.000Z,10.63
2018-09-29T19:25:12.597Z,6.50
2018-09-29T19:27:42.182Z,10.57
2018-09-29T19:30:11.866Z,8.60
2018-09-29T19:32:41.570Z,10.63
2018-09-29T19:35:11.281Z,7.60
2018-09-29T19:37:41.816Z,13.83
2018-09-29T19:40:12.332Z,5.80
2018-09-29T19:42:49.459Z,7.10
2018-09-29T19:45:19.880Z,7.75
2018-09-29T19:47:49.761Z,7.80
2018-09-29T19:50:20.331Z,7.85
2018-09-29T19:52:51.658Z,6.93
2018-09-29T19:55:21.906Z,5.97
2018-09-29T19:57:51.892Z,6.70
2018-09-29T20:00:21.879Z,8.53
2018-09-29T20:02:51.708Z,7.77
2018-09-29T20:05:21.955Z,6.92
2018-09-29T20:07:54.097Z,10.67
2018-09-29T20:10:25.806Z,9.33
2018-09-29T20:12:57.550Z,10.57
2018-09-29T20:15:27.519Z,11.73
2018-09-29T20:17:57.365Z,11.03
2018-09-29T20:20:28.092Z,11.33
2018-09-29T20:23:01.073Z,10.10
2018-09-29T20:25:30.924Z,10.33
2018-09-29T20:28:04.701Z,11.83
2018-09-29T20:37:03.700Z,11.60
2018-09-29T20:39:33.520Z,8.63
2018-09-29T20:42:03.541Z,10.03
2018-09-29T20:44:34.228Z,10.17
2018-09-29T20:47:09.141Z,10.50
2018-09-29T20:49:39.023Z,10.60
2018-09-29T20:52:08.703Z,13.53
2018-09-29T20:54:38.418Z,11.85
2018-09-29T20:57:07.945Z,11.27
2018-09-29T20:59:37.475Z,12.57
2018-09-29T21:02:07.372Z,11.73
2018-09-29T21:04:37.012Z,10.87
2018-09-29T21:07:06.692Z,18.13
2018-09-29T21:09:36.474Z,12.67
2018-09-29T21:12:06.214Z,15.17
2018-09-29T21:14:35.839Z,17.27
2018-09-29T21:17:06.223Z,11.10
2018-09-29T21:19:35.819Z,12.77
2018-09-29T21:22:06.447Z,10.48
2018-09-29T21:24:36.185Z,11.10
2018-09-29T21:27:06.473Z,12.53
2018-09-29T21:29:36.077Z,14.60
2018-09-29T21:32:06.585Z,14.75
2018-09-29T21:34:36.090Z,12.73
2018-09-29T21:37:06.361Z,11.05
2018-09-29T21:39:36.196Z,9.63
2018-09-29T21:42:06.460Z,13.38
2018-09-29T21:44:36.079Z,10.57
2018-09-29T21:47:06.529Z,11.03
2018-09-29T21:49:37.057Z,10.70
2018-09-29T21:52:06.759Z,10.40
2018-09-29T21:54:36.442Z,15.63
2018-09-29T21:57:06.883Z,10.28
2018-09-29T21:59:36.909Z,11.00
2018-09-29T22:02:07.401Z,9.03
2018-09-29T22:04:38.263Z,9.80
2018-09-29T22:07:08.082Z,10.17
2018-09-29T22:09:37.693Z,11.53
2018-09-29T22:12:07.861Z,8.40
2018-09-29T22:14:37.373Z,13.27
2018-09-29T22:17:06.904Z,8.73
2018-09-29T22:19:37.928Z,8.10
2018-09-29T22:22:07.529Z,10.47
2018-09-29T22:24:37.047Z,11.47
2018-09-29T22:27:06.585Z,8.37
2018-09-29T22:29:36.183Z,8.03
2018-09-29T22:32:06.490Z,10.85
2018-09-29T22:34:36.497Z,9.80
2018-09-29T22:37:06.568Z,11.65
2018-09-29T22:39:36.090Z,13.90
2018-09-29T22:42:06.561Z,8.45
2018-09-29T22:44:36.052Z,9.55
2018-09-29T22:47:06.285Z,11.53
2018-09-29T22:49:35.987Z,9.30
2018-09-29T22:52:06.636Z,8.75
2018-09-29T22:54:36.426Z,8.10
2018-09-29T22:57:06.457Z,8.40
2018-09-29T22:59:36.210Z,6.20
2018-09-29T23:02:06.723Z,10.70
2018-09-29T23:04:43.980Z,9.00
2018-09-29T23:07:21.245Z,9.88
2018-09-29T23:09:59.852Z,7.33
2018-09-29T23:12:36.412Z,10.40
2018-09-29T23:15:13.377Z,9.05
2018-09-29T23:17:50.658Z,11.57
2018-09-29T23:20:28.281Z,9.03
2018-09-29T23:23:07.257Z,10.80
2018-09-29T23:25:45.209Z,7.50
2018-09-29T23:28:23.550Z,7.57
2018-09-29T23:31:00.604Z,9.80
2018-09-29T23:33:38.896Z,6.40
2018-09-29T23:36:17.602Z,8.73
2018-09-29T23:38:55.809Z,7.10
2018-09-29T23:41:33.532Z,8.33
2018-09-29T23:44:09.800Z,6.43
2018-09-29T23:46:48.799Z,7.27
2018-09-29T23:49:26.383Z,6.50
2018-09-29T23:52:03.845Z,9.23
2018-09-29T23:54:41.555Z,6.50
2018-09-29T23:57:17.917Z,6.42
2018-09-29T23:59:55.261Z,7.07
